createdAt,value
2018-12-12T00:00:17.533Z,8.40
2018-12-12T00:01:17.565Z,11.20
2018-12-12T00:02:17.518Z,12.80
2018-12-12T00:03:17.514Z,12.30
2018-12-12T00:04:17.508Z,9.50
2018-12-12T00:05:17.507Z,11.50
2018-12-12T00:06:17.525Z,10.70
2018-12-12T00:07:17.492Z,12.60
2018-12-12T00:08:17.488Z,8.70
2018-12-12T00:09:17.488Z,9.40
2018-12-12T00:10:17.476Z,10.90
2018-12-12T00:11:17.496Z,9.50
2018-12-12T00:12:17.464Z,9.20
2018-12-12T00:13:17.457Z,10.70
2018-12-12T00:14:17.452Z,11.70
2018-12-12T00:15:17.445Z,10.80
2018-12-12T00:16:17.468Z,10.10
2018-12-12T00:17:17.438Z,9.30
2018-12-12T00:18:17.457Z,9.00
2018-12-12T00:19:17.420Z,10.40
2018-12-12T00:20:17.425Z,8.30
2018-12-12T00:21:17.444Z,10.50
2018-12-12T00:22:17.420Z,9.80
2018-12-12T00:23:17.400Z,8.80
2018-12-12T00:24:17.397Z,10.60
2018-12-12T00:25:17.392Z,10.70
2018-12-12T00:26:17.409Z,8.50
2018-12-12T00:27:17.379Z,7.30
2018-12-12T00:28:17.379Z,10.60
2018-12-12T00:29:17.367Z,9.60
2018-12-12T00:30:17.361Z,11.70
2018-12-12T00:31:17.397Z,12.50
2018-12-12T00:32:17.422Z,8.10
2018-12-12T00:33:17.345Z,10.50
2018-12-12T00:34:17.339Z,9.10
2018-12-12T00:35:17.329Z,8.10
2018-12-12T00:36:17.355Z,9.50
2018-12-12T00:37:17.319Z,9.60
2018-12-12T00:38:17.320Z,8.20
2018-12-12T00:39:17.316Z,10.10
2018-12-12T00:40:17.315Z,9.10
2018-12-12T00:41:17.342Z,9.10
2018-12-12T00:42:17.876Z,7.80
2018-12-12T00:43:17.286Z,9.80
2018-12-12T00:44:17.285Z,9.10
2018-12-12T00:45:17.275Z,9.60
2018-12-12T00:46:17.303Z,8.50
2018-12-12T00:47:17.275Z,9.50
2018-12-12T00:48:17.256Z,10.70
2018-12-12T00:49:17.289Z,9.90
2018-12-12T00:50:17.247Z,8.90
2018-12-12T00:51:17.278Z,11.70
2018-12-12T00:52:17.231Z,9.70
2018-12-12T00:53:17.227Z,7.90
2018-12-12T00:54:17.223Z,10.60
2018-12-12T00:55:17.227Z,8.90
2018-12-12T00:56:17.242Z,10.80
2018-12-12T00:57:17.205Z,9.00
2018-12-12T00:58:17.198Z,9.30
2018-12-12T00:59:17.194Z,11.30
2018-12-12T01:00:17.206Z,11.90
2018-12-12T01:01:17.217Z,9.40
2018-12-12T01:02:17.178Z,7.60
2018-12-12T01:03:17.177Z,11.30
2018-12-12T01:04:17.205Z,11.20
2018-12-12T01:05:17.161Z,10.80
2018-12-12T01:06:17.194Z,9.10
2018-12-12T01:07:17.152Z,10.40
2018-12-12T01:08:17.145Z,12.30
2018-12-12T01:09:17.137Z,12.80
2018-12-12T01:10:17.140Z,9.50
2018-12-12T01:11:17.156Z,9.90
2018-12-12T01:12:17.118Z,9.80
2018-12-12T01:13:17.118Z,9.50
2018-12-12T01:14:17.115Z,9.10
2018-12-12T01:15:17.101Z,8.90
2018-12-12T01:16:17.125Z,8.90
2018-12-12T01:17:17.094Z,7.60
2018-12-12T01:18:17.087Z,9.00
2018-12-12T01:19:17.081Z,6.60
2018-12-12T01:20:17.073Z,8.40
2018-12-12T01:21:17.098Z,8.90
2018-12-12T01:22:17.069Z,8.80
2018-12-12T01:23:17.057Z,8.70
2018-12-12T01:24:17.053Z,8.70
2018-12-12T01:25:17.051Z,10.30
2018-12-12T01:26:17.085Z,6.50
2018-12-12T01:27:17.033Z,9.20
2018-12-12T01:28:17.029Z,11.10
2018-12-12T01:29:17.031Z,10.40
2018-12-12T01:30:17.016Z,9.60
2018-12-12T01:31:17.041Z,11.30
2018-12-12T01:32:17.005Z,7.90
2018-12-12T01:33:17.002Z,12.20
2018-12-12T01:34:16.995Z,9.40
2018-12-12T01:35:16.990Z,9.60
2018-12-12T01:36:17.012Z,9.10
2018-12-12T01:37:16.976Z,10.50
2018-12-12T01:38:16.986Z,10.50
2018-12-12T01:39:16.968Z,11.40
2018-12-12T01:40:16.964Z,10.20
2018-12-12T01:41:17.003Z,11.00
2018-12-12T01:42:16.948Z,9.10
2018-12-12T01:43:16.943Z,10.10
2018-12-12T01:44:16.942Z,12.60
2018-12-12T01:45:16.934Z,9.50
2018-12-12T01:46:16.952Z,10.70
2018-12-12T01:47:16.916Z,9.70
2018-12-12T01:48:16.908Z,10.40
2018-12-12T01:49:16.908Z,10.20
2018-12-12T01:50:16.900Z,12.40
2018-12-12T01:51:16.925Z,10.80
2018-12-12T01:52:16.885Z,11.60
2018-12-12T01:53:16.892Z,9.30
2018-12-12T01:54:16.875Z,9.70
2018-12-12T01:55:16.874Z,9.30
2018-12-12T01:56:16.892Z,11.20
2018-12-12T01:57:16.862Z,10.60
2018-12-12T01:58:16.851Z,9.50
2018-12-12T01:59:16.848Z,10.60
2018-12-12T02:00:16.840Z,9.60
2018-12-12T02:01:16.881Z,9.80
2018-12-12T02:02:16.828Z,9.50
2018-12-12T02:03:16.824Z,8.20
2018-12-12T02:04:16.820Z,9.20
2018-12-12T02:05:16.812Z,10.90
2018-12-12T02:06:16.835Z,8.30
2018-12-12T02:07:16.799Z,9.00
2018-12-12T02:08:16.795Z,9.00
2018-12-12T02:09:16.795Z,9.20
2018-12-12T02:10:16.779Z,8.70
2018-12-12T02:11:16.800Z,10.20
2018-12-12T02:12:16.771Z,9.50
2018-12-12T02:13:16.834Z,9.90
2018-12-12T02:14:16.758Z,9.70
2018-12-12T02:15:16.747Z,9.00
2018-12-12T02:16:16.779Z,10.00
2018-12-12T02:17:16.735Z,11.30
2018-12-12T02:18:16.738Z,9.90
2018-12-12T02:19:16.731Z,9.20
2018-12-12T02:20:16.731Z,9.00
2018-12-12T02:21:16.742Z,8.80
2018-12-12T02:22:16.715Z,9.30
2018-12-12T02:23:16.703Z,9.00
2018-12-12T02:24:16.699Z,10.00
2018-12-12T02:25:16.683Z,7.90
2018-12-12T02:26:17.391Z,10.40
2018-12-12T02:27:16.682Z,9.40
2018-12-12T02:28:16.674Z,8.20
2018-12-12T02:29:16.669Z,8.70
2018-12-12T02:30:16.662Z,9.10
2018-12-12T02:31:16.682Z,9.20
2018-12-12T02:32:16.651Z,8.50
2018-12-12T02:33:16.642Z,7.20
2018-12-12T02:34:16.639Z,8.10
2018-12-12T02:35:16.635Z,8.80
2018-12-12T02:36:16.650Z,8.30
2018-12-12T02:37:16.622Z,8.80
2018-12-12T02:38:16.614Z,8.30
2018-12-12T02:39:16.606Z,8.30
2018-12-12T02:40:16.601Z,8.90
2018-12-12T02:41:16.633Z,7.40
2018-12-12T02:42:16.587Z,7.80
2018-12-12T02:43:16.599Z,7.70
2018-12-12T02:44:16.585Z,7.10
2018-12-12T02:45:16.579Z,6.90
2018-12-12T02:46:16.585Z,6.60
2018-12-12T02:47:16.557Z,7.00
2018-12-12T02:48:16.558Z,6.80
2018-12-12T02:49:16.545Z,7.80
2018-12-12T02:50:16.548Z,6.60
2018-12-12T02:51:16.565Z,6.10
2018-12-12T02:52:16.522Z,6.80
2018-12-12T02:53:16.522Z,6.20
2018-12-12T02:54:16.508Z,6.90
2018-12-12T02:55:16.509Z,8.00
2018-12-12T02:56:16.529Z,6.10
2018-12-12T02:57:16.504Z,6.00
2018-12-12T02:58:16.490Z,5.80
2018-12-12T02:59:16.496Z,5.20
2018-12-12T03:00:16.478Z,6.90
2018-12-12T03:01:16.474Z,6.40
2018-12-12T03:02:16.492Z,5.60
2018-12-12T03:03:16.457Z,6.60
2018-12-12T03:04:16.453Z,6.50
2018-12-12T03:05:16.450Z,7.20
2018-12-12T03:06:16.474Z,6.00
2018-12-12T03:07:16.435Z,7.60
2018-12-12T03:08:16.460Z,8.00
2018-12-12T03:09:16.438Z,7.80
2018-12-12T03:10:16.412Z,6.60
2018-12-12T03:11:16.411Z,6.70
2018-12-12T03:12:16.433Z,7.20
2018-12-12T03:13:16.395Z,7.20
2018-12-12T03:14:16.383Z,7.70
2018-12-12T03:15:16.386Z,7.70
2018-12-12T03:16:16.375Z,7.80
2018-12-12T03:17:16.400Z,6.90
2018-12-12T03:18:16.378Z,7.00
2018-12-12T03:19:16.359Z,7.70
2018-12-12T03:20:16.347Z,7.70
2018-12-12T03:21:16.350Z,7.30
2018-12-12T03:22:16.376Z,7.50
2018-12-12T03:23:16.336Z,9.20
2018-12-12T03:24:16.327Z,7.40
2018-12-12T03:25:16.318Z,6.40
2018-12-12T03:26:16.534Z,7.60
2018-12-12T03:27:16.335Z,7.10
2018-12-12T03:28:16.312Z,6.60
2018-12-12T03:29:16.300Z,7.20
2018-12-12T03:30:16.292Z,6.70
2018-12-12T03:31:16.312Z,5.50
2018-12-12T03:32:16.284Z,6.10
2018-12-12T03:33:16.275Z,6.80
2018-12-12T03:34:16.263Z,6.30
2018-12-12T03:35:16.270Z,6.40
2018-12-12T03:36:16.288Z,6.40
2018-12-12T03:37:16.247Z,6.70
2018-12-12T03:38:16.238Z,7.30
2018-12-12T03:39:16.230Z,7.00
2018-12-12T03:40:16.235Z,6.30
2018-12-12T03:41:16.252Z,6.30
2018-12-12T03:42:16.218Z,7.00
2018-12-12T03:43:16.206Z,6.60
2018-12-12T03:44:16.203Z,6.60
2018-12-12T03:45:16.200Z,7.50
2018-12-12T03:46:16.218Z,6.60
2018-12-12T03:47:16.186Z,5.80
2018-12-12T03:48:16.178Z,7.50
2018-12-12T03:49:16.172Z,6.10
2018-12-12T03:50:16.165Z,6.50
2018-12-12T03:51:16.207Z,6.40
2018-12-12T03:52:16.185Z,7.70
2018-12-12T03:53:16.149Z,6.40
2018-12-12T03:54:16.144Z,7.90
2018-12-12T03:55:16.145Z,6.30
2018-12-12T03:56:16.121Z,6.40
2018-12-12T03:57:16.152Z,6.90
2018-12-12T03:58:16.108Z,7.50
2018-12-12T03:59:16.110Z,7.50
2018-12-12T04:00:16.105Z,8.50
2018-12-12T04:01:16.127Z,7.20
2018-12-12T04:02:16.088Z,7.20
2018-12-12T04:03:16.085Z,7.20
2018-12-12T04:04:16.082Z,7.80
2018-12-12T04:05:16.069Z,7.30
2018-12-12T04:06:16.145Z,8.10
2018-12-12T04:07:16.062Z,7.40
2018-12-12T04:08:16.055Z,7.50
2018-12-12T04:09:16.076Z,8.30
2018-12-12T04:10:16.040Z,8.70
2018-12-12T04:11:16.037Z,7.70
2018-12-12T04:12:16.056Z,8.30
2018-12-12T04:13:16.025Z,9.50
2018-12-12T04:14:16.017Z,8.40
2018-12-12T04:15:16.010Z,9.60
2018-12-12T04:16:16.004Z,7.50
2018-12-12T04:17:16.028Z,8.40
2018-12-12T04:18:15.998Z,8.10
2018-12-12T04:19:15.984Z,9.60
2018-12-12T04:20:15.980Z,9.70
2018-12-12T04:21:15.974Z,9.30
2018-12-12T04:22:16.000Z,11.50
2018-12-12T04:23:15.966Z,10.10
2018-12-12T04:24:15.957Z,8.50
2018-12-12T04:25:15.948Z,9.90
2018-12-12T04:26:15.949Z,11.90
2018-12-12T04:27:15.964Z,12.50
2018-12-12T04:28:15.935Z,11.00
2018-12-12T04:29:15.931Z,10.10
2018-12-12T04:30:15.919Z,11.80
2018-12-12T04:31:15.911Z,11.50
2018-12-12T04:32:15.926Z,11.70
2018-12-12T04:33:15.901Z,11.00
2018-12-12T04:34:15.890Z,12.40
2018-12-12T04:35:15.889Z,14.20
2018-12-12T04:36:15.878Z,12.50
2018-12-12T04:37:15.904Z,13.00
2018-12-12T04:38:15.876Z,14.80
2018-12-12T04:39:15.867Z,14.20
2018-12-12T04:40:15.852Z,12.50
2018-12-12T04:41:15.856Z,13.40
2018-12-12T04:42:15.889Z,13.90
2018-12-12T04:43:15.843Z,14.90
2018-12-12T04:44:15.831Z,13.10
2018-12-12T04:45:15.829Z,12.10
2018-12-12T04:46:15.820Z,12.60
2018-12-12T04:47:15.840Z,15.10
2018-12-12T04:48:15.806Z,15.50
2018-12-12T04:49:15.802Z,13.90
2018-12-12T04:50:15.786Z,13.50
2018-12-12T04:51:15.790Z,14.50
2018-12-12T04:52:15.809Z,13.00
2018-12-12T04:53:15.777Z,17.30
2018-12-12T04:54:15.771Z,10.70
2018-12-12T04:55:15.764Z,12.90
2018-12-12T04:56:15.767Z,12.10
2018-12-12T04:57:15.778Z,12.90
2018-12-12T04:58:15.746Z,12.20
2018-12-12T04:59:15.734Z,13.30
2018-12-12T05:00:15.742Z,16.70
2018-12-12T05:01:15.726Z,13.90
2018-12-12T05:02:15.750Z,12.30
2018-12-12T05:03:15.714Z,13.60
2018-12-12T05:04:15.706Z,13.80
2018-12-12T05:05:15.702Z,13.30
2018-12-12T05:06:15.694Z,14.10
2018-12-12T05:07:15.713Z,13.00
2018-12-12T05:08:15.684Z,13.20
2018-12-12T05:09:15.686Z,12.50
2018-12-12T05:10:15.669Z,12.90
2018-12-12T05:11:15.669Z,12.80
2018-12-12T05:12:15.691Z,13.00
2018-12-12T05:13:15.652Z,11.50
2018-12-12T05:14:15.646Z,14.20
2018-12-12T05:15:15.640Z,13.00
2018-12-12T05:16:15.633Z,13.40
2018-12-12T05:17:15.656Z,15.70
2018-12-12T05:18:15.631Z,12.00
2018-12-12T05:19:15.616Z,11.80
2018-12-12T05:20:15.611Z,13.50
2018-12-12T05:21:15.601Z,11.60
2018-12-12T05:22:15.628Z,12.20
2018-12-12T05:23:15.589Z,13.80
2018-12-12T05:24:15.584Z,12.30
2018-12-12T05:25:15.573Z,12.60
2018-12-12T05:26:15.740Z,13.30
2018-12-12T05:27:15.593Z,13.40
2018-12-12T05:28:15.563Z,13.20
2018-12-12T05:29:15.550Z,10.80
2018-12-12T05:30:15.555Z,11.60
2018-12-12T05:31:15.540Z,11.00
2018-12-12T05:32:15.562Z,13.20
2018-12-12T05:33:15.531Z,11.10
2018-12-12T05:34:15.517Z,12.90
2018-12-12T05:35:15.517Z,11.30
2018-12-12T05:36:15.514Z,13.80
2018-12-12T05:37:15.532Z,10.40
2018-12-12T05:38:15.505Z,12.20
2018-12-12T05:39:15.492Z,10.80
2018-12-12T05:40:15.485Z,11.40
2018-12-12T05:41:15.480Z,13.40
2018-12-12T05:42:15.500Z,11.50
2018-12-12T05:43:15.463Z,10.80
2018-12-12T05:44:15.461Z,11.20
2018-12-12T05:45:15.456Z,10.60
2018-12-12T05:46:15.486Z,10.00
2018-12-12T05:47:15.439Z,12.20
2018-12-12T05:48:15.464Z,12.00
2018-12-12T05:49:15.445Z,10.80
2018-12-12T05:50:15.422Z,12.10
2018-12-12T05:51:15.414Z,10.40
2018-12-12T05:52:16.084Z,11.90
2018-12-12T05:53:15.404Z,11.10
2018-12-12T05:54:15.399Z,10.70
2018-12-12T05:55:15.391Z,11.50
2018-12-12T05:56:15.382Z,10.30
2018-12-12T05:57:15.409Z,10.50
2018-12-12T05:58:15.375Z,11.40
2018-12-12T05:59:15.371Z,10.70
2018-12-12T06:00:15.359Z,11.10
2018-12-12T06:01:15.356Z,9.80
2018-12-12T06:02:15.370Z,13.60
2018-12-12T06:03:15.343Z,11.00
2018-12-12T06:04:15.339Z,10.30
2018-12-12T06:05:15.331Z,10.80
2018-12-12T06:06:15.357Z,8.50
2018-12-12T06:07:15.321Z,9.30
2018-12-12T06:08:15.315Z,9.30
2018-12-12T06:09:15.306Z,8.70
2018-12-12T06:10:15.296Z,10.10
2018-12-12T06:11:15.323Z,9.30
2018-12-12T06:12:15.290Z,9.20
2018-12-12T06:13:15.285Z,9.30
2018-12-12T06:14:15.277Z,8.80
2018-12-12T06:15:15.277Z,9.60
2018-12-12T06:16:15.290Z,9.90
2018-12-12T06:17:15.260Z,9.70
2018-12-12T06:18:15.249Z,9.80
2018-12-12T06:19:15.247Z,10.10
2018-12-12T06:20:15.238Z,9.20
2018-12-12T06:21:15.263Z,9.70
2018-12-12T06:22:15.230Z,10.00
2018-12-12T06:23:15.222Z,8.90
2018-12-12T06:24:15.217Z,9.20
2018-12-12T06:25:15.211Z,11.20
2018-12-12T06:26:15.234Z,9.50
2018-12-12T06:27:15.196Z,9.20
2018-12-12T06:28:15.193Z,9.30
2018-12-12T06:29:15.186Z,8.60
2018-12-12T06:30:15.179Z,8.80
2018-12-12T06:31:15.201Z,9.10
2018-12-12T06:32:15.169Z,8.60
2018-12-12T06:33:15.166Z,7.70
2018-12-12T06:34:15.153Z,8.60
2018-12-12T06:35:18.107Z,9.90
2018-12-12T06:36:15.210Z,8.70
2018-12-12T06:37:15.138Z,7.50
2018-12-12T06:38:15.129Z,9.50
2018-12-12T06:39:15.122Z,9.90
2018-12-12T06:40:16.704Z,9.10
2018-12-12T06:41:15.141Z,8.40
2018-12-12T06:42:15.128Z,9.60
2018-12-12T06:43:15.097Z,8.80
2018-12-12T06:44:15.102Z,10.00
2018-12-12T06:45:15.089Z,9.90
2018-12-12T06:46:15.111Z,9.90
2018-12-12T06:47:15.077Z,9.20
2018-12-12T06:48:15.073Z,9.00
2018-12-12T06:49:15.065Z,8.30
2018-12-12T06:50:15.060Z,7.90
2018-12-12T06:51:15.080Z,9.20
2018-12-12T06:52:15.050Z,10.70
2018-12-12T06:53:15.033Z,9.50
2018-12-12T06:54:15.037Z,9.80
2018-12-12T06:55:15.030Z,11.50
2018-12-12T06:56:15.052Z,8.80
2018-12-12T06:57:15.016Z,9.80
2018-12-12T06:58:15.007Z,9.10
2018-12-12T06:59:15.007Z,8.30
2018-12-12T07:00:15.004Z,10.30
2018-12-12T07:01:15.020Z,9.60
2018-12-12T07:02:14.985Z,8.60
2018-12-12T07:03:14.995Z,8.80
2018-12-12T07:04:14.974Z,9.70
2018-12-12T07:05:14.970Z,10.90
2018-12-12T07:06:15.007Z,11.40
2018-12-12T07:07:14.956Z,9.40
2018-12-12T07:08:15.013Z,10.00
2018-12-12T07:09:15.582Z,9.40
2018-12-12T07:10:14.944Z,10.40
2018-12-12T07:11:15.095Z,9.50
2018-12-12T07:12:14.946Z,9.40
2018-12-12T07:13:14.937Z,9.50
2018-12-12T07:14:25.754Z,9.80
2018-12-12T07:15:14.927Z,11.80
2018-12-12T07:16:14.918Z,11.70
2018-12-12T07:17:14.891Z,11.10
2018-12-12T07:18:14.884Z,9.10
2018-12-12T07:19:14.880Z,11.30
2018-12-12T07:20:14.871Z,10.80
2018-12-12T07:21:14.897Z,10.40
2018-12-12T07:22:14.859Z,10.00
2018-12-12T07:23:14.845Z,12.40
2018-12-12T07:24:14.839Z,11.40
2018-12-12T07:25:14.832Z,11.40
2018-12-12T07:26:14.855Z,11.40
2018-12-12T07:27:14.815Z,9.90
2018-12-12T07:28:14.814Z,11.60
2018-12-12T07:29:14.823Z,12.20
2018-12-12T07:30:14.812Z,11.40
2018-12-12T07:31:14.836Z,13.60
2018-12-12T07:32:14.798Z,11.60
2018-12-12T07:33:14.795Z,15.70
2018-12-12T07:34:14.778Z,13.10
2018-12-12T07:35:14.841Z,11.10
2018-12-12T07:36:14.802Z,13.20
2018-12-12T07:37:14.771Z,13.30
2018-12-12T07:38:14.760Z,13.80
2018-12-12T07:39:17.926Z,16.10
2018-12-12T07:40:14.743Z,12.20
2018-12-12T07:41:14.771Z,14.90
2018-12-12T07:42:14.735Z,14.70
2018-12-12T07:43:14.731Z,13.90
2018-12-12T07:44:14.749Z,13.10
2018-12-12T07:45:14.718Z,10.70
2018-12-12T07:46:14.712Z,8.30
2018-12-12T07:47:14.731Z,5.60
2018-12-12T07:48:14.696Z,12.00
2018-12-12T07:49:14.689Z,9.50
2018-12-12T07:50:14.678Z,12.60
2018-12-12T07:51:14.676Z,8.80
2018-12-12T07:52:14.697Z,7.70
2018-12-12T07:53:14.668Z,10.90
2018-12-12T07:54:14.657Z,14.20
2018-12-12T07:55:14.657Z,9.90
2018-12-12T07:56:14.645Z,12.10
2018-12-12T07:57:14.668Z,11.80
2018-12-12T07:58:14.633Z,9.00
2018-12-12T07:59:14.638Z,11.30
2018-12-12T08:00:14.620Z,11.60
2018-12-12T08:01:14.616Z,10.30
2018-12-12T08:02:14.670Z,13.80
2018-12-12T08:03:14.602Z,15.10
2018-12-12T08:04:14.593Z,12.50
2018-12-12T08:05:14.590Z,12.60
2018-12-12T08:06:14.582Z,13.70
2018-12-12T08:07:14.606Z,16.80
2018-12-12T08:08:14.569Z,12.90
2018-12-12T08:09:14.564Z,14.80
2018-12-12T08:10:14.557Z,15.40
2018-12-12T08:11:14.556Z,11.80
2018-12-12T08:12:14.575Z,11.10
2018-12-12T08:13:14.539Z,11.30
2018-12-12T08:14:14.533Z,13.80
2018-12-12T08:15:14.525Z,12.70
2018-12-12T08:16:14.592Z,12.90
2018-12-12T08:17:14.540Z,14.10
2018-12-12T08:18:14.504Z,11.90
2018-12-12T08:19:14.503Z,12.80
2018-12-12T08:20:14.493Z,13.80
2018-12-12T08:21:14.489Z,10.20
2018-12-12T08:22:14.509Z,13.00
2018-12-12T08:23:14.473Z,10.90
2018-12-12T08:24:14.468Z,11.70
2018-12-12T08:25:14.462Z,12.10
2018-12-12T08:26:14.457Z,13.10
2018-12-12T08:27:14.477Z,12.60
2018-12-12T08:28:14.447Z,12.30
2018-12-12T08:29:14.438Z,12.40
2018-12-12T08:30:14.431Z,11.70
2018-12-12T08:31:14.428Z,9.70
2018-12-12T08:32:14.449Z,8.30
2018-12-12T08:33:15.049Z,14.80
2018-12-12T08:34:14.403Z,13.30
2018-12-12T08:35:14.412Z,12.10
2018-12-12T08:36:14.393Z,12.20
2018-12-12T08:37:14.422Z,10.90
2018-12-12T08:38:14.417Z,12.10
2018-12-12T08:39:14.373Z,12.60
2018-12-12T08:40:14.372Z,13.00
2018-12-12T08:41:14.371Z,12.90
2018-12-12T08:42:14.387Z,15.70
2018-12-12T08:43:14.356Z,15.60
2018-12-12T08:44:14.343Z,13.70
2018-12-12T08:45:14.335Z,15.00
2018-12-12T08:46:14.328Z,11.80
2018-12-12T08:47:14.348Z,16.40
2018-12-12T08:48:14.314Z,15.70
2018-12-12T08:49:14.311Z,16.90
2018-12-12T08:50:14.307Z,13.70
2018-12-12T08:51:14.295Z,16.10
2018-12-12T08:52:14.320Z,17.50
2018-12-12T08:53:14.283Z,13.90
2018-12-12T08:54:14.274Z,16.10
2018-12-12T08:55:17.586Z,12.70
2018-12-12T08:56:14.263Z,10.70
2018-12-12T08:57:14.259Z,13.20
2018-12-12T08:58:14.276Z,12.40
2018-12-12T08:59:14.244Z,12.40
2018-12-12T09:00:14.260Z,12.80
2018-12-12T09:01:14.231Z,14.80
2018-12-12T09:02:14.255Z,15.20
2018-12-12T09:03:17.604Z,14.10
2018-12-12T09:04:14.215Z,16.90
2018-12-12T09:05:14.206Z,15.00
2018-12-12T09:06:14.202Z,16.90
2018-12-12T09:07:14.220Z,14.00
2018-12-12T09:08:14.187Z,14.70
2018-12-12T09:09:14.179Z,14.10
2018-12-12T09:10:14.176Z,16.40
2018-12-12T09:11:14.167Z,14.50
2018-12-12T09:12:14.217Z,13.30
2018-12-12T09:13:15.415Z,17.70
2018-12-12T09:14:14.168Z,12.40
2018-12-12T09:15:14.171Z,16.20
2018-12-12T09:16:14.139Z,14.70
2018-12-12T09:17:14.135Z,16.40
2018-12-12T09:18:14.157Z,14.50
2018-12-12T09:19:14.117Z,15.90
2018-12-12T09:20:14.117Z,14.80
2018-12-12T09:21:14.139Z,14.30
2018-12-12T09:22:14.103Z,14.20
2018-12-12T09:23:14.128Z,15.00
2018-12-12T09:24:14.097Z,17.30
2018-12-12T09:25:14.082Z,16.20
2018-12-12T09:26:14.076Z,14.40
2018-12-12T09:27:14.075Z,14.80
2018-12-12T09:28:14.098Z,12.90
2018-12-12T09:29:14.057Z,17.80
2018-12-12T09:30:14.068Z,16.90
2018-12-12T09:31:14.065Z,16.30
2018-12-12T09:32:14.047Z,17.50
2018-12-12T09:33:14.100Z,15.10
2018-12-12T09:34:14.029Z,12.50
2018-12-12T09:35:14.034Z,13.90
2018-12-12T09:36:14.028Z,15.40
2018-12-12T09:37:14.037Z,16.30
2018-12-12T09:38:14.040Z,13.10
2018-12-12T09:39:14.007Z,12.10
2018-12-12T09:40:14.029Z,14.40
2018-12-12T09:41:14.012Z,14.70
2018-12-12T09:42:13.998Z,11.10
2018-12-12T09:43:14.004Z,13.30
2018-12-12T09:44:14.020Z,16.50
2018-12-12T09:45:13.964Z,13.50
2018-12-12T09:46:13.995Z,11.10
2018-12-12T09:47:13.954Z,13.40
2018-12-12T09:48:19.308Z,11.30
2018-12-12T09:49:14.008Z,12.50
2018-12-12T09:50:13.926Z,12.50
2018-12-12T09:51:13.919Z,13.40
2018-12-12T09:52:13.920Z,12.30
2018-12-12T09:53:13.926Z,15.30
2018-12-12T09:54:13.941Z,17.40
2018-12-12T09:55:13.914Z,12.90
2018-12-12T09:56:13.905Z,14.20
2018-12-12T09:57:13.901Z,12.30
2018-12-12T09:58:13.876Z,10.70
2018-12-12T09:59:13.907Z,13.10
2018-12-12T10:00:13.869Z,13.20
2018-12-12T10:01:13.863Z,9.30
2018-12-12T10:02:13.860Z,9.00
2018-12-12T10:03:13.856Z,11.80
2018-12-12T10:04:13.875Z,13.10
2018-12-12T10:05:13.841Z,12.40
2018-12-12T10:06:13.837Z,12.10
2018-12-12T10:07:13.830Z,10.80
2018-12-12T10:08:13.827Z,8.70
2018-12-12T10:09:13.843Z,11.40
2018-12-12T10:10:13.812Z,8.50
2018-12-12T10:11:13.803Z,12.40
2018-12-12T10:12:13.791Z,9.60
2018-12-12T10:13:13.792Z,9.70
2018-12-12T10:14:13.831Z,10.00
2018-12-12T10:15:13.780Z,8.60
2018-12-12T10:16:13.776Z,8.80
2018-12-12T10:17:13.767Z,9.50
2018-12-12T10:18:13.762Z,8.00
2018-12-12T10:19:13.786Z,8.80
2018-12-12T10:20:13.760Z,8.00
2018-12-12T10:21:13.749Z,7.80
2018-12-12T10:22:13.749Z,9.80
2018-12-12T10:23:16.164Z,10.30
2018-12-12T10:24:13.758Z,10.40
2018-12-12T10:25:13.796Z,10.10
2018-12-12T10:26:13.746Z,9.10
2018-12-12T10:27:13.770Z,11.30
2018-12-12T10:28:13.707Z,9.80
2018-12-12T10:29:13.731Z,10.70
2018-12-12T10:30:13.704Z,12.30
2018-12-12T10:31:13.692Z,9.80
2018-12-12T10:32:13.682Z,9.70
2018-12-12T10:33:13.682Z,8.50
2018-12-12T10:34:13.699Z,9.20
2018-12-12T10:35:14.561Z,9.50
2018-12-12T10:36:13.657Z,9.50
2018-12-12T10:37:13.661Z,10.70
2018-12-12T10:38:13.650Z,9.90
2018-12-12T10:39:13.673Z,10.70
2018-12-12T10:40:13.691Z,10.70
2018-12-12T10:41:13.637Z,8.40
2018-12-12T10:42:13.629Z,9.00
2018-12-12T10:43:13.681Z,10.80
2018-12-12T10:44:13.649Z,8.90
2018-12-12T10:45:13.613Z,8.10
2018-12-12T10:46:13.606Z,8.00
2018-12-12T10:47:13.598Z,7.50
2018-12-12T10:48:13.599Z,7.70
2018-12-12T10:49:13.617Z,6.40
2018-12-12T10:50:13.585Z,7.50
2018-12-12T10:51:13.605Z,6.90
2018-12-12T10:52:13.577Z,7.90
2018-12-12T10:53:13.567Z,8.60
2018-12-12T10:54:13.563Z,7.70
2018-12-12T10:55:13.596Z,9.70
2018-12-12T10:56:13.553Z,9.70
2018-12-12T10:57:13.545Z,10.80
2018-12-12T10:58:13.544Z,7.50
2018-12-12T10:59:13.530Z,9.20
2018-12-12T11:00:13.564Z,9.00
2018-12-12T11:01:14.111Z,8.80
2018-12-12T11:02:13.517Z,9.20
2018-12-12T11:03:13.519Z,11.10
2018-12-12T11:04:13.509Z,12.80
2018-12-12T11:05:13.533Z,15.20
2018-12-12T11:06:13.497Z,11.60
2018-12-12T11:07:13.493Z,10.10
2018-12-12T11:08:13.485Z,9.40
2018-12-12T11:09:13.482Z,12.60
2018-12-12T11:10:13.505Z,10.00
2018-12-12T11:11:13.470Z,10.10
2018-12-12T11:12:13.465Z,9.90
2018-12-12T11:13:13.461Z,12.20
2018-12-12T11:14:13.446Z,9.00
2018-12-12T11:15:13.476Z,10.90
2018-12-12T11:16:13.445Z,9.00
2018-12-12T11:17:13.443Z,11.30
2018-12-12T11:18:13.436Z,11.70
2018-12-12T11:19:13.428Z,8.90
2018-12-12T11:20:13.463Z,14.80
2018-12-12T11:21:13.420Z,10.30
2018-12-12T11:22:13.417Z,10.50
2018-12-12T11:23:13.408Z,9.30
2018-12-12T11:24:13.400Z,7.50
2018-12-12T11:25:13.429Z,11.80
2018-12-12T11:26:13.397Z,9.40
2018-12-12T11:27:13.393Z,8.10
2018-12-12T11:28:13.389Z,8.30
2018-12-12T11:29:13.384Z,8.50
2018-12-12T11:30:13.404Z,8.00
2018-12-12T11:31:13.370Z,7.80
2018-12-12T11:32:13.377Z,7.20
2018-12-12T11:33:13.363Z,7.50
2018-12-12T11:34:13.361Z,6.70
2018-12-12T11:35:13.443Z,6.60
2018-12-12T11:36:13.357Z,7.80
2018-12-12T11:37:13.347Z,7.90
2018-12-12T11:38:13.336Z,6.80
2018-12-12T11:39:13.340Z,7.50
2018-12-12T11:40:13.361Z,7.70
2018-12-12T11:41:13.329Z,7.10
2018-12-12T11:42:13.321Z,7.60
2018-12-12T11:43:13.316Z,10.90
2018-12-12T11:44:13.312Z,7.20
2018-12-12T11:45:13.335Z,8.80
2018-12-12T11:46:13.305Z,7.90
2018-12-12T11:47:13.298Z,7.50
2018-12-12T11:48:13.296Z,7.40
2018-12-12T11:49:13.292Z,6.80
2018-12-12T11:50:13.315Z,9.80
2018-12-12T11:51:13.278Z,7.40
2018-12-12T11:52:13.271Z,6.40
2018-12-12T11:53:13.273Z,7.90
2018-12-12T11:54:13.259Z,7.00
2018-12-12T11:55:13.292Z,7.60
2018-12-12T11:56:13.259Z,7.10
2018-12-12T11:57:13.254Z,9.00
2018-12-12T11:58:13.246Z,7.10
2018-12-12T11:59:13.242Z,8.60
2018-12-12T12:00:13.266Z,7.60
2018-12-12T12:01:13.234Z,6.80
2018-12-12T12:02:13.259Z,8.20
2018-12-12T12:03:13.227Z,9.40
2018-12-12T12:04:13.221Z,8.50
2018-12-12T12:05:13.220Z,7.80
2018-12-12T12:06:13.237Z,9.60
2018-12-12T12:07:13.214Z,9.20
2018-12-12T12:08:13.201Z,9.70
2018-12-12T12:09:13.196Z,8.60
2018-12-12T12:10:13.196Z,9.50
2018-12-12T12:11:13.209Z,9.90
2018-12-12T12:12:13.186Z,10.10
2018-12-12T12:13:13.177Z,11.50
2018-12-12T12:14:13.772Z,11.30
2018-12-12T12:15:13.168Z,12.60
2018-12-12T12:16:13.193Z,11.30
2018-12-12T12:17:13.156Z,11.90
2018-12-12T12:18:13.146Z,12.30
2018-12-12T12:19:13.144Z,12.00
2018-12-12T12:20:13.143Z,11.70
2018-12-12T12:21:13.172Z,12.30
2018-12-12T12:22:13.123Z,11.50
2018-12-12T12:23:13.124Z,13.00
2018-12-12T12:24:13.121Z,12.10
2018-12-12T12:25:13.101Z,12.90
2018-12-12T12:26:13.143Z,13.30
2018-12-12T12:27:13.105Z,13.50
2018-12-12T12:28:13.101Z,12.60
2018-12-12T12:29:13.093Z,12.90
2018-12-12T12:30:13.089Z,14.70
2018-12-12T12:31:13.110Z,14.10
2018-12-12T12:32:13.077Z,13.80
2018-12-12T12:33:13.070Z,13.20
2018-12-12T12:34:13.064Z,13.20
2018-12-12T12:35:13.058Z,13.00
2018-12-12T12:36:13.085Z,13.40
2018-12-12T12:37:13.061Z,14.70
2018-12-12T12:38:13.049Z,13.20
2018-12-12T12:39:13.040Z,13.40
2018-12-12T12:40:13.036Z,15.60
2018-12-12T12:41:13.060Z,12.90
2018-12-12T12:42:13.025Z,15.70
2018-12-12T12:43:13.020Z,12.30
2018-12-12T12:44:13.014Z,11.80
2018-12-12T12:45:13.014Z,13.50
2018-12-12T12:46:13.036Z,14.30
2018-12-12T12:47:13.008Z,12.80
2018-12-12T12:48:12.996Z,13.30
2018-12-12T12:49:12.992Z,12.20
2018-12-12T12:50:12.984Z,11.70
2018-12-12T12:51:13.012Z,12.80
2018-12-12T12:52:12.972Z,12.10
2018-12-12T12:53:12.972Z,13.40
2018-12-12T12:54:13.792Z,11.90
2018-12-12T12:55:12.987Z,12.70
2018-12-12T12:56:12.961Z,13.10
2018-12-12T12:57:12.947Z,12.90
2018-12-12T12:58:12.943Z,12.80
2018-12-12T12:59:12.935Z,14.70
2018-12-12T13:00:12.964Z,13.50
2018-12-12T13:01:12.927Z,12.90
2018-12-12T13:02:12.929Z,13.10
2018-12-12T13:03:12.916Z,11.70
2018-12-12T13:04:12.911Z,13.50